Etusivu
METAR-TAF:

METAR-TAF

Lentoasemat :

N’Djamenan kansainvälinen lentoasema

N'Djamena, Tšad

Leveyspiiri: 12-08N, Pituuspiiri: 015-02E, korkeus merenpinnasta: 295 m

Tämänhetkinen sää

Tämä raportti tehtiin 36 minuuttia sitten, kello 05.00 UTC
tyyntä
Lämpötila 21°C
Kosteus 83%
Ilmanpaine 1008 hPa
Näkyvyys: 6000 m

METAR: FTTJ 130500Z 00000KT 6000 NSC 21/18 Q1008 NOSIG

Aika: 06:36 (05:36 UTC)

Sääennuste

Tämä raportti tehtiin 6 tuntia ja 31 minuuttia sitten, kello 23.05 UTC
Ennuste voimassa 13. päivästä klo 00 UTC - 14. päivään klo 06 UTC
Tuuli 4 kn koillisesta
Näkyvyys: 8000 m
Ajoittain
13. päivästä klo 06 UTC - 13. päivään klo 08 UTC
Näkyvyys: 4000 m
laajalle levinnyttä pölyä

TAF: FTTJ 122305Z 1300/1406 04004KT 8000 NSC TEMPO 1306/1308 4000 DU

Säähavainnot ja -ennusteet yli 4000 lentoasemalta (METAR- ja TAF-raportit).

Käytössä olevat sääasemat on merkitty karttaan keltaisilla ja punaisilla pisteillä.

Aseta hiiri pisteen päälle nähdäksesi sääaseman nimen.

Klikkaa sitten nähdäksesi säähavainnot ja -ennusteet.

Kartan vaihtaminen: klikkaa mustalla rastilla varustettuja vihreitä pisteitä, niin voit zoomata sisään; viivalla varustettua vihreää pistettä, niin voit zoomata ulos tai vihreitä nuolia, niin pääset viereisille kartoille.


METAR-TAF: